^^
Your Local Weather - Clay, NY Station Historical Data
Daily Summary for May 5, 2017 Units:  English    Metric   Both
« Previous Day
Next Day »
Daily Weekly Monthly Yearly Custom
  High: Low: Average:
Temperature: 52.6 °F 43.8 °F 47.9 °F
Dew Point: 49.0 °F 41.0 °F 44.9 °F
Humidity: 93% 82% 89%
Wind Speed: 9.0mph 1.0mph 3.9mph
Wind Gust: 15.0mph - -
Wind- - East
Pressure: 29.94 in 29.38 in -
Precipitation: 1.02 in    
Historical Graphs
 
 
Tabular Data for May 5, 2017
Time Temperature Dew Point Pressure Wind Wind Speed Wind Gust Humidity Rainfall Rate (Hourly) solar
00:00 46.7 °F 42.1 °F 29.94 in ENE 2.0 mph 2.0 mph 84% 0.00 in 0 W/m2
00:06 46.7 °F 42.1 °F 29.94 in ENE 1.0 mph 5.0 mph 84% 0.00 in 0 W/m2
00:12 46.7 °F 42.1 °F 29.93 in East 2.0 mph 2.0 mph 84% 0.00 in 0 W/m2
00:18 46.7 °F 42.1 °F 29.93 in ENE 2.0 mph 3.0 mph 84% 0.00 in 0 W/m2
00:24 46.8 °F 42.2 °F 29.93 in ENE 2.0 mph 2.0 mph 84% 0.00 in 0 W/m2
00:32 46.7 °F 42.1 °F 29.93 in East 2.0 mph 4.0 mph 84% 0.00 in 0 W/m2
00:38 46.8 °F 41.9 °F 29.93 in SE 3.0 mph 5.0 mph 83% 0.00 in 0 W/m2
00:44 46.8 °F 41.9 °F 29.93 in ENE 2.0 mph 3.0 mph 83% 0.00 in 0 W/m2
00:50 46.8 °F 41.9 °F 29.93 in ENE 2.0 mph 2.0 mph 83% 0.00 in 0 W/m2
00:56 46.6 °F 42.0 °F 29.93 in East 2.0 mph 5.0 mph 84% 0.00 in 0 W/m2
01:02 46.3 °F 41.7 °F 29.92 in East 2.0 mph 2.0 mph 84% 0.00 in 0 W/m2
01:08 46.1 °F 41.8 °F 29.92 in ENE 2.0 mph 3.0 mph 85% 0.00 in 0 W/m2
01:14 45.9 °F 41.9 °F 29.92 in East 1.0 mph 2.0 mph 86% 0.11 in 0 W/m2
01:20 45.7 °F 42.1 °F 29.92 in East 1.0 mph 2.0 mph 87% 0.10 in 0 W/m2
01:26 45.6 °F 42.0 °F 29.92 in East 1.0 mph 3.0 mph 87% 0.05 in 0 W/m2
01:32 45.3 °F 41.7 °F 29.92 in East 1.0 mph 1.0 mph 87% 0.13 in 0 W/m2
01:38 45.2 °F 41.9 °F 29.92 in East 2.0 mph 3.0 mph 88% 0.08 in 0 W/m2
01:44 45.1 °F 41.8 °F 29.92 in NE 2.0 mph 2.0 mph 88% 0.06 in 0 W/m2
01:50 44.9 °F 41.6 °F 29.91 in ENE 1.0 mph 7.0 mph 88% 0.09 in 0 W/m2
01:56 44.8 °F 41.8 °F 29.91 in ESE 1.0 mph 7.0 mph 89% 0.07 in 0 W/m2
02:02 44.7 °F 41.7 °F 29.90 in SE 1.0 mph 2.0 mph 89% 0.10 in 0 W/m2
02:08 44.6 °F 41.6 °F 29.90 in East 2.0 mph 2.0 mph 89% 0.12 in 0 W/m2
02:14 44.5 °F 41.5 °F 29.90 in ESE 2.0 mph 5.0 mph 89% 0.12 in 0 W/m2
02:20 44.5 °F 41.5 °F 29.90 in SSE 1.0 mph 1.0 mph 89% 0.10 in 0 W/m2
02:26 44.4 °F 41.4 °F 29.89 in East 1.0 mph 2.0 mph 89% 0.10 in 0 W/m2
02:32 44.3 °F 41.3 °F 29.89 in ESE 2.0 mph 3.0 mph 89% 0.10 in 0 W/m2
02:38 44.3 °F 41.3 °F 29.88 in ENE 2.0 mph 3.0 mph 89% 0.12 in 0 W/m2
02:44 44.2 °F 41.2 °F 29.89 in ENE 1.0 mph 2.0 mph 89% 0.09 in 0 W/m2
02:50 44.1 °F 41.1 °F 29.89 in ENE 1.0 mph 2.0 mph 89% 0.10 in 0 W/m2
02:56 44.0 °F 41.0 °F 29.89 in ESE 2.0 mph 3.0 mph 89% 0.07 in 0 W/m2
03:02 44.0 °F 41.0 °F 29.89 in ESE 1.0 mph 1.0 mph 89% 0.13 in 0 W/m2
03:08 44.0 °F 41.0 °F 29.87 in ENE 1.0 mph 1.0 mph 89% 0.30 in 0 W/m2
03:14 43.9 °F 41.2 °F 29.87 in East 1.0 mph 1.0 mph 90% 0.17 in 0 W/m2
03:20 43.8 °F 41.1 °F 29.87 in East 2.0 mph 2.0 mph 90% 0.11 in 0 W/m2
03:26 43.8 °F 41.1 °F 29.87 in East 2.0 mph 6.0 mph 90% 0.11 in 0 W/m2
03:32 43.8 °F 41.1 °F 29.86 in ESE 2.0 mph 3.0 mph 90% 0.21 in 0 W/m2
03:38 43.8 °F 41.1 °F 29.86 in East 2.0 mph 3.0 mph 90% 0.13 in 0 W/m2
03:44 43.8 °F 41.1 °F 29.87 in East 1.0 mph 2.0 mph 90% 0.09 in 0 W/m2
03:50 43.9 °F 41.2 °F 29.86 in ENE 1.0 mph 3.0 mph 90% 0.11 in 0 W/m2
03:56 44.0 °F 41.5 °F 29.86 in ENE 2.0 mph 3.0 mph 91% 0.15 in 0 W/m2
04:02 44.1 °F 41.6 °F 29.85 in East 2.0 mph 2.0 mph 91% 0.16 in 0 W/m2
04:08 44.2 °F 41.7 °F 29.85 in ENE 1.0 mph 2.0 mph 91% 0.14 in 0 W/m2
04:14 44.3 °F 41.8 °F 29.85 in East 1.0 mph 5.0 mph 91% 0.07 in 0 W/m2
04:20 44.5 °F 42.0 °F 29.85 in SE 2.0 mph 2.0 mph 91% 0.06 in 0 W/m2
04:26 44.5 °F 42.0 °F 29.85 in ENE 2.0 mph 3.0 mph 91% 0.06 in 0 W/m2
04:32 44.6 °F 42.1 °F 29.85 in East 2.0 mph 2.0 mph 91% 0.12 in 0 W/m2
04:38 44.7 °F 42.2 °F 29.84 in ENE 2.0 mph 3.0 mph 91% 0.08 in 0 W/m2
04:44 44.7 °F 42.5 °F 29.84 in East 2.0 mph 2.0 mph 92% 0.08 in 0 W/m2
04:50 44.8 °F 42.6 °F 29.83 in ESE 1.0 mph 2.0 mph 92% 0.05 in 0 W/m2
04:56 44.9 °F 42.7 °F 29.83 in East 2.0 mph 4.0 mph 92% 0.04 in 0 W/m2
05:02 45.0 °F 42.8 °F 29.82 in ESE 2.0 mph 2.0 mph 92% 0.04 in 0 W/m2
05:08 45.1 °F 42.9 °F 29.82 in ESE 2.0 mph 2.0 mph 92% 0.04 in 0 W/m2
05:14 45.2 °F 43.0 °F 29.82 in ENE 2.0 mph 4.0 mph 92% 0.04 in 0 W/m2
05:20 45.2 °F 43.0 °F 29.82 in East 2.0 mph 5.0 mph 92% 0.04 in 0 W/m2
05:26 45.3 °F 43.1 °F 29.81 in East 2.0 mph 5.0 mph 92% 0.00 in 0 W/m2
05:32 45.5 °F 43.3 °F 29.81 in East 2.0 mph 2.0 mph 92% 0.00 in 0 W/m2
05:38 45.7 °F 43.5 °F 29.81 in East 3.0 mph 3.0 mph 92% 0.00 in 0 W/m2
05:44 45.7 °F 43.5 °F 29.81 in East 3.0 mph 5.0 mph 92% 0.06 in 0 W/m2
05:50 45.4 °F 43.2 °F 29.81 in ESE 2.0 mph 3.0 mph 92% 0.06 in 0 W/m2
05:56 45.3 °F 43.1 °F 29.80 in East 2.0 mph 5.0 mph 92% 0.05 in 0 W/m2
06:00 45.2 °F 43.0 °F 29.81 in ENE 2.0 mph 2.0 mph 92% 0.04 in 0 W/m2
06:06 45.2 °F 43.0 °F 29.80 in East 1.0 mph 2.0 mph 92% 0.10 in 0 W/m2
06:12 45.3 °F 43.1 °F 29.80 in ENE 2.0 mph 5.0 mph 92% 0.10 in 0 W/m2
06:18 45.3 °F 43.1 °F 29.80 in North 2.0 mph 5.0 mph 92% 0.07 in 0 W/m2
06:24 45.3 °F 43.1 °F 29.79 in ENE 1.0 mph 4.0 mph 92% 0.10 in 5 W/m2
06:30 45.4 °F 43.2 °F 29.79 in East 2.0 mph 5.0 mph 92% 0.06 in 7 W/m2
06:36 45.4 °F 43.2 °F 29.79 in East 2.0 mph 6.0 mph 92% 0.05 in 9 W/m2
06:42 45.4 °F 43.2 °F 29.79 in NE 3.0 mph 4.0 mph 92% 0.08 in 9 W/m2
06:48 45.4 °F 43.2 °F 29.79 in ENE 2.0 mph 10.0 mph 92% 0.11 in 7 W/m2
06:54 45.6 °F 43.4 °F 29.79 in ESE 2.0 mph 2.0 mph 92% 0.08 in 11 W/m2
07:00 45.6 °F 43.4 °F 29.79 in SE 2.0 mph 2.0 mph 92% 0.06 in 11 W/m2
07:06 45.7 °F 43.8 °F 29.79 in East 3.0 mph 4.0 mph 93% 0.06 in 14 W/m2
07:12 45.7 °F 43.5 °F 29.79 in ENE 3.0 mph 3.0 mph 92% 0.09 in 16 W/m2
07:18 45.7 °F 43.5 °F 29.79 in ESE 3.0 mph 3.0 mph 92% 0.06 in 18 W/m2
07:24 45.8 °F 43.6 °F 29.79 in ENE 2.0 mph 5.0 mph 92% 0.06 in 23 W/m2
07:30 45.8 °F 43.6 °F 29.79 in ESE 3.0 mph 3.0 mph 92% 0.06 in 30 W/m2
07:36 45.8 °F 43.6 °F 29.78 in ENE 3.0 mph 8.0 mph 92% 0.08 in 21 W/m2
07:42 45.9 °F 43.7 °F 29.78 in ENE 3.0 mph 4.0 mph 92% 0.08 in 30 W/m2
07:48 45.9 °F 43.7 °F 29.77 in East 4.0 mph 5.0 mph 92% 0.04 in 39 W/m2
07:54 46.0 °F 43.8 °F 29.77 in East 4.0 mph 7.0 mph 92% 0.04 in 28 W/m2
08:00 46.0 °F 43.8 °F 29.76 in ENE 4.0 mph 7.0 mph 92% 0.22 in 26 W/m2
08:06 45.9 °F 43.7 °F 29.77 in ENE 4.0 mph 7.0 mph 92% 0.13 in 35 W/m2
08:12 45.8 °F 43.6 °F 29.76 in East 4.0 mph 7.0 mph 92% 0.12 in 42 W/m2
08:18 45.7 °F 43.5 °F 29.76 in East 5.0 mph 7.0 mph 92% 0.08 in 47 W/m2
08:24 45.5 °F 43.3 °F 29.76 in NE 5.0 mph 6.0 mph 92% 0.05 in 42 W/m2
08:30 45.3 °F 43.1 °F 29.76 in East 5.0 mph 7.0 mph 92% 0.05 in 54 W/m2
08:36 45.3 °F 43.1 °F 29.76 in ENE 4.0 mph 7.0 mph 92% 0.05 in 72 W/m2
08:42 45.2 °F 43.0 °F 29.76 in ENE 4.0 mph 4.0 mph 92% 0.05 in 54 W/m2
08:48 45.1 °F 42.9 °F 29.75 in SE 4.0 mph 5.0 mph 92% 0.05 in 40 W/m2
08:54 45.1 °F 42.9 °F 29.75 in NNE 5.0 mph 5.0 mph 92% 0.11 in 58 W/m2
09:00 45.1 °F 42.9 °F 29.74 in ENE 4.0 mph 4.0 mph 92% 0.08 in 49 W/m2
09:06 45.1 °F 42.9 °F 29.74 in East 4.0 mph 8.0 mph 92% 0.08 in 69 W/m2
09:12 45.1 °F 42.9 °F 29.73 in East 4.0 mph 5.0 mph 92% 0.05 in 79 W/m2
09:18 45.1 °F 42.9 °F 29.73 in East 5.0 mph 5.0 mph 92% 0.05 in 81 W/m2
09:24 45.0 °F 43.1 °F 29.72 in East 5.0 mph 5.0 mph 93% 0.05 in 88 W/m2
09:30 45.1 °F 42.9 °F 29.72 in NE 4.0 mph 4.0 mph 92% 0.04 in 91 W/m2
09:36 45.1 °F 42.9 °F 29.72 in ENE 4.0 mph 4.0 mph 92% 0.04 in 77 W/m2
09:42 45.1 °F 42.9 °F 29.71 in ESE 5.0 mph 5.0 mph 92% 0.04 in 93 W/m2
09:48 45.1 °F 43.2 °F 29.71 in ENE 6.0 mph 7.0 mph 93% 0.00 in 86 W/m2
09:54 45.1 °F 42.9 °F 29.70 in East 5.0 mph 5.0 mph 92% 0.00 in 97 W/m2
10:00 45.0 °F 43.1 °F 29.70 in ESE 5.0 mph 5.0 mph 93% 0.00 in 98 W/m2
10:06 45.1 °F 42.9 °F 29.70 in NE 5.0 mph 6.0 mph 92% 0.00 in 79 W/m2
10:12 45.2 °F 43.0 °F 29.69 in ESE 4.0 mph 12.0 mph 92% 0.04 in 88 W/m2
10:18 45.3 °F 43.1 °F 29.69 in ESE 5.0 mph 12.0 mph 92% 0.04 in 81 W/m2
10:24 45.4 °F 43.2 °F 29.68 in NE 4.0 mph 5.0 mph 92% 0.04 in 84 W/m2
10:30 45.5 °F 43.6 °F 29.68 in ENE 4.0 mph 9.0 mph 93% 0.04 in 118 W/m2
10:36 45.6 °F 43.7 °F 29.68 in East 4.0 mph 9.0 mph 93% 0.04 in 130 W/m2
10:42 45.6 °F 43.7 °F 29.67 in SSE 5.0 mph 5.0 mph 93% 0.00 in 130 W/m2
10:48 45.7 °F 43.5 °F 29.67 in SE 5.0 mph 8.0 mph 92% 0.00 in 142 W/m2
10:54 45.8 °F 43.9 °F 29.67 in East 5.0 mph 9.0 mph 93% 0.00 in 158 W/m2
11:00 46.0 °F 43.8 °F 29.67 in ENE 5.0 mph 7.0 mph 92% 0.00 in 169 W/m2
11:06 46.1 °F 44.2 °F 29.67 in ENE 6.0 mph 10.0 mph 93% 0.00 in 158 W/m2
11:12 46.0 °F 43.8 °F 29.66 in ESE 6.0 mph 13.0 mph 92% 0.00 in 132 W/m2
11:18 46.1 °F 44.2 °F 29.66 in ESE 6.0 mph 13.0 mph 93% 0.00 in 132 W/m2
11:24 46.2 °F 44.0 °F 29.66 in East 5.0 mph 11.0 mph 92% 0.00 in 105 W/m2
11:30 46.2 °F 44.0 °F 29.66 in SE 4.0 mph 6.0 mph 92% 0.04 in 81 W/m2
11:36 46.2 °F 44.3 °F 29.66 in East 5.0 mph 6.0 mph 93% 0.10 in 72 W/m2
11:42 46.3 °F 44.4 °F 29.65 in NNE 5.0 mph 5.0 mph 93% 0.18 in 76 W/m2
11:48 46.3 °F 44.4 °F 29.65 in ESE 4.0 mph 5.0 mph 93% 0.14 in 76 W/m2
11:54 46.4 °F 44.5 °F 29.65 in NE 4.0 mph 7.0 mph 93% 0.10 in 83 W/m2
12:00 46.3 °F 44.4 °F 29.65 in ENE 6.0 mph 6.0 mph 93% 0.14 in 79 W/m2
12:06 46.5 °F 44.6 °F 29.65 in ENE 5.0 mph 6.0 mph 93% 0.12 in 67 W/m2
12:12 46.6 °F 44.7 °F 29.64 in ENE 4.0 mph 4.0 mph 93% 0.15 in 72 W/m2
12:18 46.6 °F 44.7 °F 29.64 in ESE 4.0 mph 7.0 mph 93% 0.11 in 79 W/m2
12:24 46.7 °F 44.8 °F 29.63 in North 5.0 mph 5.0 mph 93% 0.12 in 88 W/m2
12:30 46.7 °F 44.8 °F 29.62 in NNE 5.0 mph 7.0 mph 93% 0.08 in 93 W/m2
12:36 46.7 °F 44.8 °F 29.60 in ENE 6.0 mph 10.0 mph 93% 0.07 in 91 W/m2
12:42 46.8 °F 44.9 °F 29.61 in ENE 6.0 mph 7.0 mph 93% 0.06 in 76 W/m2
12:48 46.9 °F 45.0 °F 29.61 in SSE 4.0 mph 7.0 mph 93% 0.06 in 79 W/m2
12:54 47.0 °F 45.1 °F 29.62 in ESE 4.0 mph 5.0 mph 93% 0.18 in 74 W/m2
13:00 46.9 °F 45.0 °F 29.61 in ENE 5.0 mph 5.0 mph 93% 0.31 in 79 W/m2
13:06 47.0 °F 45.1 °F 29.59 in ENE 6.0 mph 6.0 mph 93% 0.38 in 76 W/m2
13:12 47.1 °F 45.2 °F 29.60 in ENE 5.0 mph 5.0 mph 93% 0.15 in 97 W/m2
13:18 47.1 °F 45.2 °F 29.58 in NE 6.0 mph 15.0 mph 93% 0.07 in 120 W/m2
13:24 47.2 °F 45.3 °F 29.57 in East 6.0 mph 7.0 mph 93% 0.07 in 146 W/m2
13:30 47.4 °F 45.5 °F 29.56 in East 7.0 mph 7.0 mph 93% 0.07 in 190 W/m2
13:36 47.6 °F 45.7 °F 29.54 in East 8.0 mph 10.0 mph 93% 0.07 in 220 W/m2
13:42 47.8 °F 45.9 °F 29.53 in SE 8.0 mph 13.0 mph 93% 0.04 in 192 W/m2
13:48 47.8 °F 45.6 °F 29.52 in ENE 9.0 mph 13.0 mph 92% 0.00 in 181 W/m2
13:54 47.9 °F 45.7 °F 29.53 in ENE 8.0 mph 9.0 mph 92% 0.00 in 125 W/m2
14:00 48.0 °F 45.8 °F 29.53 in NNW 7.0 mph 7.0 mph 92% 0.00 in 156 W/m2
14:06 48.3 °F 46.1 °F 29.53 in North 7.0 mph 13.0 mph 92% 0.00 in 218 W/m2
14:12 48.5 °F 46.0 °F 29.54 in East 7.0 mph 8.0 mph 91% 0.00 in 127 W/m2
14:18 48.5 °F 46.0 °F 29.54 in ENE 6.0 mph 8.0 mph 91% 0.00 in 148 W/m2
14:24 48.7 °F 45.9 °F 29.54 in East 6.0 mph 13.0 mph 90% 0.00 in 214 W/m2
14:30 49.1 °F 46.3 °F 29.54 in ENE 7.0 mph 7.0 mph 90% 0.00 in 213 W/m2
14:36 49.3 °F 46.2 °F 29.54 in ESE 6.0 mph 8.0 mph 89% 0.00 in 160 W/m2
14:42 49.4 °F 46.3 °F 29.54 in East 5.0 mph 9.0 mph 89% 0.00 in 97 W/m2
14:48 49.4 °F 46.0 °F 29.54 in NE 5.0 mph 10.0 mph 88% 0.00 in 114 W/m2
14:54 49.5 °F 46.1 °F 29.54 in ENE 6.0 mph 7.0 mph 88% 0.00 in 100 W/m2
15:00 49.7 °F 46.3 °F 29.53 in East 5.0 mph 6.0 mph 88% 0.00 in 116 W/m2
15:06 49.9 °F 46.5 °F 29.53 in ESE 4.0 mph 8.0 mph 88% 0.00 in 113 W/m2
15:12 50.1 °F 46.7 °F 29.53 in ENE 4.0 mph 5.0 mph 88% 0.00 in 132 W/m2
15:18 50.3 °F 46.6 °F 29.52 in East 5.0 mph 12.0 mph 87% 0.00 in 120 W/m2
15:24 50.6 °F 46.9 °F 29.52 in SSE 4.0 mph 5.0 mph 87% 0.00 in 88 W/m2
15:30 50.5 °F 46.5 °F 29.52 in East 3.0 mph 7.0 mph 86% 0.00 in 70 W/m2
15:36 50.5 °F 46.5 °F 29.51 in ENE 4.0 mph 7.0 mph 86% 0.00 in 79 W/m2
15:42 50.5 °F 46.5 °F 29.51 in East 4.0 mph 5.0 mph 86% 0.00 in 84 W/m2
15:48 50.7 °F 46.7 °F 29.51 in NE 5.0 mph 5.0 mph 86% 0.00 in 121 W/m2
15:54 50.8 °F 46.5 °F 29.50 in ESE 6.0 mph 9.0 mph 85% 0.00 in 93 W/m2
16:00 50.9 °F 46.6 °F 29.50 in NE 5.0 mph 5.0 mph 85% 0.00 in 153 W/m2
16:06 51.0 °F 46.6 °F 29.49 in East 5.0 mph 5.0 mph 85% 0.00 in 105 W/m2
16:12 51.2 °F 46.8 °F 29.49 in East 6.0 mph 8.0 mph 85% 0.00 in 135 W/m2
16:18 51.4 °F 47.0 °F 29.48 in ESE 6.0 mph 9.0 mph 85% 0.00 in 93 W/m2
16:24 51.4 °F 46.7 °F 29.48 in NE 6.0 mph 9.0 mph 84% 0.00 in 134 W/m2
16:30 51.7 °F 47.0 °F 29.48 in East 6.0 mph 6.0 mph 84% 0.00 in 174 W/m2
16:36 52.0 °F 47.3 °F 29.48 in East 6.0 mph 8.0 mph 84% 0.00 in 116 W/m2
16:42 52.3 °F 47.6 °F 29.48 in ESE 5.0 mph 7.0 mph 84% 0.00 in 98 W/m2
16:48 52.5 °F 47.2 °F 29.49 in ENE 5.0 mph 9.0 mph 82% 0.00 in 58 W/m2
16:54 52.6 °F 47.6 °F 29.48 in ENE 5.0 mph 5.0 mph 83% 0.00 in 54 W/m2
17:00 52.4 °F 47.4 °F 29.48 in NE 4.0 mph 4.0 mph 83% 0.00 in 67 W/m2
17:06 52.3 °F 47.3 °F 29.48 in ENE 5.0 mph 10.0 mph 83% 0.00 in 53 W/m2
17:12 52.2 °F 47.2 °F 29.48 in East 5.0 mph 5.0 mph 83% 0.00 in 37 W/m2
17:18 52.1 °F 47.1 °F 29.48 in NE 4.0 mph 9.0 mph 83% 0.00 in 42 W/m2
17:24 52.0 °F 47.0 °F 29.48 in East 5.0 mph 7.0 mph 83% 0.00 in 51 W/m2
17:30 52.0 °F 47.0 °F 29.48 in ENE 5.0 mph 8.0 mph 83% 0.00 in 63 W/m2
17:36 52.0 °F 47.0 °F 29.48 in ENE 5.0 mph 10.0 mph 83% 0.00 in 79 W/m2
17:44 51.9 °F 47.2 °F 29.48 in ENE 4.0 mph 7.0 mph 84% 0.00 in 37 W/m2
17:50 51.7 °F 47.0 °F 29.47 in ESE 3.0 mph 3.0 mph 84% 0.00 in 46 W/m2
17:56 51.6 °F 46.9 °F 29.47 in ENE 3.0 mph 5.0 mph 84% 0.00 in 49 W/m2
18:02 51.6 °F 46.9 °F 29.46 in East 4.0 mph 7.0 mph 84% 0.00 in 44 W/m2
18:08 51.5 °F 46.8 °F 29.47 in ENE 5.0 mph 7.0 mph 84% 0.00 in 35 W/m2
18:14 51.4 °F 46.7 °F 29.47 in NE 5.0 mph 7.0 mph 84% 0.00 in 23 W/m2
18:20 51.4 °F 47.0 °F 29.47 in ESE 5.0 mph 7.0 mph 85% 0.00 in 12 W/m2
18:26 51.4 °F 47.0 °F 29.46 in East 5.0 mph 7.0 mph 85% 0.00 in 19 W/m2
18:32 51.4 °F 47.0 °F 29.46 in ENE 4.0 mph 10.0 mph 85% 0.00 in 18 W/m2
18:38 51.4 °F 47.0 °F 29.46 in ESE 5.0 mph 10.0 mph 85% 0.00 in 16 W/m2
18:44 51.3 °F 46.9 °F 29.46 in East 4.0 mph 7.0 mph 85% 0.00 in 18 W/m2
18:50 51.4 °F 47.0 °F 29.46 in East 5.0 mph 5.0 mph 85% 0.00 in 18 W/m2
18:56 51.3 °F 46.9 °F 29.46 in ESE 5.0 mph 7.0 mph 85% 0.00 in 16 W/m2
19:02 51.2 °F 46.8 °F 29.45 in ESE 5.0 mph 7.0 mph 85% 0.00 in 19 W/m2
19:08 51.3 °F 46.9 °F 29.45 in East 4.0 mph 7.0 mph 85% 0.00 in 19 W/m2
19:14 51.4 °F 47.0 °F 29.45 in East 4.0 mph 7.0 mph 85% 0.00 in 18 W/m2
19:20 51.4 °F 47.0 °F 29.46 in ENE 5.0 mph 5.0 mph 85% 0.00 in 14 W/m2
19:26 51.4 °F 47.0 °F 29.45 in ENE 5.0 mph 5.0 mph 85% 0.00 in 14 W/m2
19:32 51.4 °F 47.0 °F 29.45 in East 5.0 mph 5.0 mph 85% 0.00 in 12 W/m2
19:38 51.4 °F 47.0 °F 29.45 in ENE 5.0 mph 8.0 mph 85% 0.00 in 7 W/m2
19:44 51.5 °F 47.5 °F 29.45 in NE 5.0 mph 8.0 mph 86% 0.00 in 9 W/m2
19:50 51.4 °F 47.4 °F 29.45 in NE 5.0 mph 5.0 mph 86% 0.00 in 5 W/m2
19:56 51.2 °F 47.5 °F 29.45 in ESE 4.0 mph 6.0 mph 87% 0.00 in 0 W/m2
20:02 51.0 °F 47.6 °F 29.45 in ENE 4.0 mph 5.0 mph 88% 0.00 in 0 W/m2
20:08 50.8 °F 47.4 °F 29.45 in ENE 4.0 mph 6.0 mph 88% 0.00 in 0 W/m2
20:14 50.6 °F 47.5 °F 29.45 in East 5.0 mph 6.0 mph 89% 0.00 in 0 W/m2
20:20 50.5 °F 47.7 °F 29.45 in ENE 4.0 mph 4.0 mph 90% 0.00 in 0 W/m2
20:26 50.4 °F 47.6 °F 29.45 in SE 3.0 mph 4.0 mph 90% 0.00 in 0 W/m2
20:32 50.4 °F 47.9 °F 29.45 in ENE 4.0 mph 4.0 mph 91% 0.00 in 0 W/m2
20:38 50.5 °F 48.0 °F 29.45 in East 5.0 mph 8.0 mph 91% 0.00 in 0 W/m2
20:44 50.5 °F 48.0 °F 29.45 in NNE 5.0 mph 5.0 mph 91% 0.00 in 0 W/m2
20:50 50.6 °F 48.1 °F 29.45 in East 4.0 mph 4.0 mph 91% 0.00 in 0 W/m2
20:56 50.7 °F 48.2 °F 29.45 in ESE 5.0 mph 8.0 mph 91% 0.00 in 0 W/m2
21:02 50.7 °F 48.2 °F 29.43 in NE 5.0 mph 5.0 mph 91% 0.00 in 0 W/m2
21:08 50.8 °F 48.3 °F 29.43 in ENE 4.0 mph 5.0 mph 91% 0.00 in 0 W/m2
21:14 50.8 °F 48.3 °F 29.43 in East 4.0 mph 5.0 mph 91% 0.00 in 0 W/m2
21:20 50.8 °F 48.3 °F 29.43 in ESE 4.0 mph 4.0 mph 91% 0.00 in 0 W/m2
21:26 50.9 °F 48.4 °F 29.43 in East 4.0 mph 4.0 mph 91% 0.00 in 0 W/m2
21:32 51.0 °F 48.2 °F 29.43 in ENE 4.0 mph 4.0 mph 90% 0.00 in 0 W/m2
21:38 51.2 °F 48.4 °F 29.43 in ENE 4.0 mph 5.0 mph 90% 0.00 in 0 W/m2
21:44 51.2 °F 48.4 °F 29.43 in ENE 4.0 mph 6.0 mph 90% 0.00 in 0 W/m2
21:50 51.3 °F 48.5 °F 29.42 in ENE 4.0 mph 4.0 mph 90% 0.00 in 0 W/m2
21:56 51.3 °F 48.5 °F 29.42 in ESE 5.0 mph 5.0 mph 90% 0.00 in 0 W/m2
22:02 51.4 °F 48.6 °F 29.42 in East 4.0 mph 7.0 mph 90% 0.00 in 0 W/m2
22:08 51.4 °F 48.6 °F 29.42 in ESE 5.0 mph 7.0 mph 90% 0.00 in 0 W/m2
22:14 51.5 °F 48.7 °F 29.41 in ENE 4.0 mph 5.0 mph 90% 0.00 in 0 W/m2
22:20 51.5 °F 48.7 °F 29.41 in ENE 5.0 mph 8.0 mph 90% 0.00 in 0 W/m2
22:26 51.6 °F 48.8 °F 29.41 in NE 4.0 mph 8.0 mph 90% 0.00 in 0 W/m2
22:32 51.7 °F 48.9 °F 29.41 in NE 5.0 mph 5.0 mph 90% 0.00 in 0 W/m2
22:38 51.8 °F 48.7 °F 29.40 in NE 5.0 mph 5.0 mph 89% 0.00 in 0 W/m2
22:44 51.9 °F 48.8 °F 29.40 in ESE 4.0 mph 4.0 mph 89% 0.00 in 0 W/m2
22:50 51.9 °F 48.8 °F 29.40 in East 4.0 mph 6.0 mph 89% 0.00 in 0 W/m2
22:56 52.0 °F 48.9 °F 29.40 in ENE 4.0 mph 6.0 mph 89% 0.00 in 0 W/m2
23:02 52.0 °F 48.9 °F 29.40 in ENE 4.0 mph 5.0 mph 89% 0.00 in 0 W/m2
23:08 52.0 °F 48.9 °F 29.40 in ESE 5.0 mph 6.0 mph 89% 0.00 in 0 W/m2
23:14 52.1 °F 49.0 °F 29.40 in East 5.0 mph 6.0 mph 89% 0.00 in 0 W/m2
23:20 52.1 °F 49.0 °F 29.39 in ENE 5.0 mph 5.0 mph 89% 0.00 in 0 W/m2
23:26 52.1 °F 48.7 °F 29.39 in East 5.0 mph 9.0 mph 88% 0.00 in 0 W/m2
23:32 52.0 °F 48.9 °F 29.39 in ENE 5.0 mph 5.0 mph 89% 0.00 in 0 W/m2
23:38 52.1 °F 48.7 °F 29.39 in ENE 5.0 mph 7.0 mph 88% 0.00 in 0 W/m2
23:44 52.0 °F 48.6 °F 29.38 in ENE 5.0 mph 8.0 mph 88% 0.00 in 0 W/m2
23:50 52.0 °F 48.9 °F 29.38 in ENE 5.0 mph 5.0 mph 89% 0.00 in 0 W/m2
23:56 52.1 °F 49.0 °F 29.38 in ESE 4.0 mph 10.0 mph 89% 0.00 in 0 W/m2
Country Meadow, Clay, NY, USA
Compliments of Weather Underground - 2 mb